createdAt,value
2018-01-05T00:00:00.168Z,990.31
2018-01-05T00:00:59.749Z,990.28
2018-01-05T00:01:59.319Z,990.22
2018-01-05T00:02:59.658Z,990.26
2018-01-05T00:03:59.977Z,990.37
2018-01-05T00:04:59.287Z,990.32
2018-01-05T00:05:59.870Z,990.37
2018-01-05T00:06:59.318Z,990.33
2018-01-05T00:07:59.695Z,990.33
2018-01-05T00:09:00.075Z,990.33
2018-01-05T00:09:59.683Z,990.28
2018-01-05T00:10:59.190Z,990.25
2018-01-05T00:11:59.409Z,990.24
2018-01-05T00:12:59.890Z,990.28
2018-01-05T00:13:59.369Z,990.25
2018-01-05T00:14:59.689Z,990.3
2018-01-05T00:15:59.905Z,990.23
2018-01-05T00:19:05.071Z,990.31
2018-01-05T00:19:59.367Z,990.22
2018-01-05T00:20:59.802Z,990.27
2018-01-05T00:21:59.391Z,990.14
2018-01-05T00:22:59.671Z,990.17
2018-01-05T00:23:59.844Z,990.24
2018-01-05T00:25:00.096Z,990.22
2018-01-05T00:25:59.317Z,990.18
2018-01-05T00:26:59.567Z,990.27
2018-01-05T00:27:59.767Z,990.29
2018-01-05T00:28:59.945Z,990.32
2018-01-05T00:29:59.249Z,990.29
2018-01-05T00:30:59.560Z,990.41
2018-01-05T00:31:59.799Z,990.39
2018-01-05T00:32:59.316Z,990.34
2018-01-05T00:33:59.688Z,990.41
2018-01-05T00:34:59.968Z,990.44
2018-01-05T00:35:59.974Z,990.43
2018-01-05T00:37:00.104Z,990.51
2018-01-05T00:37:59.484Z,990.57
2018-01-05T00:38:59.786Z,990.55
2018-01-05T00:40:00.112Z,990.63
2018-01-05T00:40:59.439Z,990.66
2018-01-05T00:41:59.696Z,990.67
2018-01-05T00:42:59.776Z,990.81
2018-01-05T00:44:00.357Z,990.79
2018-01-05T00:44:59.808Z,990.85
2018-01-05T00:45:59.370Z,990.84
2018-01-05T00:46:59.736Z,990.95
2018-01-05T00:48:00.102Z,990.95
2018-01-05T00:48:59.495Z,991.04
2018-01-05T00:49:59.811Z,991.05
2018-01-05T00:50:59.441Z,991.26
2018-01-05T00:51:59.860Z,991.12
2018-01-05T00:53:00.131Z,991.15
2018-01-05T00:53:59.722Z,991.16
2018-01-05T00:55:00.251Z,991.13
2018-01-05T00:55:59.602Z,991.01
2018-01-05T00:56:59.834Z,991.09
2018-01-05T00:58:00.017Z,991.1
2018-01-05T00:58:59.220Z,991.18
2018-01-05T00:59:59.706Z,991.21
2018-01-05T01:01:00.360Z,991.19
2018-01-05T01:01:59.859Z,991.3
2018-01-05T01:03:00.345Z,991.34
2018-01-05T01:03:59.632Z,991.4
2018-01-05T01:05:00.203Z,991.46
2018-01-05T01:06:00.406Z,991.43
2018-01-05T01:06:59.778Z,991.49
2018-01-05T01:08:00.128Z,991.56
2018-01-05T01:09:00.395Z,991.62
2018-01-05T01:09:59.614Z,991.65
2018-01-05T01:11:00.483Z,991.69
2018-01-05T01:11:59.768Z,991.75
2018-01-05T01:13:00.028Z,991.73
2018-01-05T01:14:00.391Z,991.78
2018-01-05T01:14:59.800Z,991.67
2018-01-05T01:16:00.114Z,991.81
2018-01-05T01:17:00.464Z,991.82
2018-01-05T01:17:59.733Z,991.81
2018-01-05T01:19:00.111Z,991.92
2018-01-05T01:19:59.562Z,991.92
2018-01-05T01:20:59.791Z,991.95
2018-01-05T01:22:00.124Z,992
2018-01-05T01:23:00.198Z,991.96
2018-01-05T01:24:00.435Z,991.99
2018-01-05T01:24:59.729Z,991.97
2018-01-05T01:26:00.414Z,992.05
2018-01-05T01:26:59.712Z,992.05
2018-01-05T01:27:59.758Z,991.96
2018-01-05T01:29:00.006Z,992.07
2018-01-05T01:30:00.448Z,991.97
2018-01-05T01:30:59.829Z,992
2018-01-05T01:32:00.244Z,992.08
2018-01-05T01:32:59.602Z,992.09
2018-01-05T01:33:59.980Z,992.08
2018-01-05T01:35:00.304Z,992.11
2018-01-05T01:35:59.688Z,992.1
2018-01-05T01:36:59.915Z,992.12
2018-01-05T01:38:00.112Z,992.15
2018-01-05T01:39:00.289Z,992.2
2018-01-05T01:41:23.647Z,992.34
2018-01-05T01:42:00.029Z,992.35
2018-01-05T01:42:59.461Z,992.28
2018-01-05T01:43:59.842Z,992.28
2018-01-05T01:45:00.137Z,992.36
2018-01-05T01:46:00.247Z,992.34
2018-01-05T01:46:59.750Z,992.42
2018-01-05T01:48:00.070Z,992.39
2018-01-05T01:48:59.532Z,992.39
2018-01-05T01:49:59.821Z,992.39
2018-01-05T01:51:00.098Z,992.42
2018-01-05T01:52:00.394Z,992.37
2018-01-05T01:52:59.688Z,992.39
2018-01-05T01:53:59.865Z,992.38
2018-01-05T01:55:00.138Z,992.45
2018-01-05T01:55:59.525Z,992.38
2018-01-05T01:56:59.841Z,992.35
2018-01-05T01:57:59.564Z,992.33
2018-01-05T01:58:59.890Z,992.42
2018-01-05T02:00:00.102Z,992.46
2018-01-05T02:01:00.462Z,992.48
2018-01-05T02:01:59.958Z,992.52
2018-01-05T02:03:00.494Z,992.51
2018-01-05T02:03:59.911Z,992.43
2018-01-05T02:05:00.273Z,992.39
2018-01-05T02:05:59.467Z,992.29
2018-01-05T02:06:59.684Z,992.35
2018-01-05T02:07:59.816Z,992.37
2018-01-05T02:09:00.317Z,992.35
2018-01-05T02:09:59.704Z,992.37
2018-01-05T02:11:00.162Z,992.41
2018-01-05T02:12:00.272Z,992.37
2018-01-05T02:12:59.427Z,992.38
2018-01-05T02:13:59.881Z,992.32
2018-01-05T02:15:00.270Z,992.36
2018-01-05T02:15:59.691Z,992.46
2018-01-05T02:17:00.088Z,992.45
2018-01-05T02:17:59.531Z,992.49
2018-01-05T02:18:59.801Z,992.36
2018-01-05T02:20:00.205Z,992.35
2018-01-05T02:20:59.596Z,992.34
2018-01-05T02:21:59.790Z,992.39
2018-01-05T02:23:00.049Z,992.47
2018-01-05T02:24:00.225Z,992.41
2018-01-05T02:25:00.307Z,992.44
2018-01-05T02:25:59.647Z,992.36
2018-01-05T02:27:00.220Z,992.33
2018-01-05T02:28:00.405Z,992.37
2018-01-05T02:28:59.676Z,992.27
2018-01-05T02:30:00.081Z,992.25
2018-01-05T02:30:59.473Z,992.21
2018-01-05T02:31:59.668Z,992.17
2018-01-05T02:32:59.981Z,992.2
2018-01-05T02:34:00.443Z,992.22
2018-01-05T02:35:01.771Z,992.19
2018-01-05T02:35:59.978Z,992.21
2018-01-05T02:37:00.396Z,992.19
2018-01-05T02:37:59.916Z,992.23
2018-01-05T02:39:00.219Z,992.25
2018-01-05T02:40:00.555Z,992.15
2018-01-05T02:41:00.249Z,992.08
2018-01-05T02:42:00.562Z,992.1
2018-01-05T02:42:59.966Z,992.13
2018-01-05T02:44:00.381Z,992.13
2018-01-05T02:45:00.655Z,992.13
2018-01-05T02:46:00.076Z,992.11
2018-01-05T02:47:00.366Z,992.05
2018-01-05T02:49:23.441Z,992.01
2018-01-05T02:49:59.809Z,991.98
2018-01-05T02:51:00.291Z,991.95
2018-01-05T02:51:59.824Z,991.89
2018-01-05T02:52:59.800Z,991.84
2018-01-05T02:53:59.956Z,991.79
2018-01-05T02:55:00.206Z,991.84
2018-01-05T02:56:00.332Z,991.79
2018-01-05T02:56:59.604Z,991.73
2018-01-05T02:57:59.687Z,991.7
2018-01-05T02:58:59.758Z,991.73
2018-01-05T03:00:00.130Z,991.75
2018-01-05T03:01:00.572Z,991.72
2018-01-05T03:02:00.403Z,991.75
2018-01-05T03:02:59.821Z,991.77
2018-01-05T03:04:00.259Z,991.8
2018-01-05T03:04:59.507Z,991.85
2018-01-05T03:05:59.816Z,991.89
2018-01-05T03:07:00.212Z,991.87
2018-01-05T03:07:59.505Z,991.93
2018-01-05T03:08:59.672Z,991.92
2018-01-05T03:09:59.973Z,991.97
2018-01-05T03:10:59.294Z,991.95
2018-01-05T03:11:59.440Z,991.91
2018-01-05T03:12:59.425Z,991.83
2018-01-05T03:13:59.740Z,991.83
2018-01-05T03:14:59.951Z,991.8
2018-01-05T03:16:00.163Z,991.79
2018-01-05T03:16:59.476Z,991.84
2018-01-05T03:17:59.773Z,991.8
2018-01-05T03:19:00.327Z,991.76
2018-01-05T03:20:00.080Z,991.73
2018-01-05T03:20:59.619Z,991.74
2018-01-05T03:21:59.910Z,991.78
2018-01-05T03:23:00.250Z,991.76
2018-01-05T03:23:59.860Z,991.78
2018-01-05T03:24:59.341Z,991.82
2018-01-05T03:25:59.537Z,991.86
2018-01-05T03:26:59.868Z,991.83
2018-01-05T03:28:00.195Z,991.84
2018-01-05T03:28:59.474Z,991.88
2018-01-05T03:29:59.792Z,991.87
2018-01-05T03:30:59.384Z,991.91
2018-01-05T03:31:59.587Z,991.93
2018-01-05T03:32:59.825Z,991.95
2018-01-05T03:33:59.075Z,991.87
2018-01-05T03:34:59.628Z,991.87
2018-01-05T03:35:59.817Z,991.84
2018-01-05T03:36:58.981Z,991.81
2018-01-05T03:37:59.177Z,991.81
2018-01-05T03:38:59.450Z,991.85
2018-01-05T03:39:59.760Z,991.83
2018-01-05T03:40:59.128Z,991.78
2018-01-05T03:41:59.405Z,991.75
2018-01-05T03:42:59.890Z,991.73
2018-01-05T03:43:59.216Z,991.7
2018-01-05T03:44:59.524Z,991.69
2018-01-05T03:45:59.041Z,991.66
2018-01-05T03:46:59.394Z,991.63
2018-01-05T03:47:59.754Z,991.66
2018-01-05T03:48:59.120Z,991.71
2018-01-05T03:49:59.328Z,991.72
2018-01-05T03:50:59.895Z,991.68
2018-01-05T03:51:59.280Z,991.58
2018-01-05T03:52:59.696Z,991.58
2018-01-05T03:53:59.091Z,991.55
2018-01-05T03:54:59.291Z,991.52
2018-01-05T03:55:59.381Z,991.56
2018-01-05T03:56:59.813Z,991.54
2018-01-05T03:57:59.027Z,991.56
2018-01-05T03:58:59.030Z,991.45
2018-01-05T03:59:59.359Z,991.41
2018-01-05T04:00:59.611Z,991.41
2018-01-05T04:01:59.807Z,991.36
2018-01-05T04:02:59.146Z,991.35
2018-01-05T04:03:59.563Z,991.34
2018-01-05T04:05:00.025Z,991.32
2018-01-05T04:06:00.762Z,991.36
2018-01-05T04:07:00.272Z,991.35
2018-01-05T04:07:59.625Z,991.37
2018-01-05T04:08:59.718Z,991.45
2018-01-05T04:10:00.048Z,991.44
2018-01-05T04:11:00.321Z,991.38
2018-01-05T04:11:59.636Z,991.34
2018-01-05T04:12:59.963Z,991.35
2018-01-05T04:14:00.025Z,991.35
2018-01-05T04:15:00.159Z,991.34
2018-01-05T04:16:00.320Z,991.36
2018-01-05T04:16:59.506Z,991.36
2018-01-05T04:17:59.823Z,991.38
2018-01-05T04:19:00.116Z,991.31
2018-01-05T04:20:00.310Z,991.37
2018-01-05T04:21:00.086Z,991.37
2018-01-05T04:22:00.231Z,991.4
2018-01-05T04:23:00.513Z,991.37
2018-01-05T04:23:59.906Z,991.38
2018-01-05T04:25:00.228Z,991.35
2018-01-05T04:26:00.389Z,991.32
2018-01-05T04:26:59.702Z,991.32
2018-01-05T04:27:59.872Z,991.26
2018-01-05T04:29:00.844Z,991.26
2018-01-05T04:30:00.218Z,991.28
2018-01-05T04:31:00.435Z,991.28
2018-01-05T04:31:59.711Z,991.27
2018-01-05T04:33:00.030Z,991.21
2018-01-05T04:34:00.397Z,991.19
2018-01-05T04:34:59.814Z,991.25
2018-01-05T04:36:00.031Z,991.16
2018-01-05T04:37:00.195Z,991.18
2018-01-05T04:37:59.544Z,991.1
2018-01-05T04:38:59.928Z,991.01
2018-01-05T04:39:59.537Z,991.12
2018-01-05T04:40:59.816Z,991.11
2018-01-05T04:42:00.064Z,991.09
2018-01-05T04:43:00.248Z,991.15
2018-01-05T04:43:59.345Z,991.09
2018-01-05T04:44:59.588Z,991.06
2018-01-05T04:45:59.947Z,991.04
2018-01-05T04:46:59.446Z,990.97
2018-01-05T04:47:59.736Z,990.92
2018-01-05T04:49:00.159Z,990.98
2018-01-05T04:49:59.608Z,990.88
2018-01-05T04:50:59.314Z,990.93
2018-01-05T04:51:59.443Z,990.86
2018-01-05T04:52:59.806Z,990.9
2018-01-05T04:54:00.266Z,990.9
2018-01-05T04:54:59.513Z,990.88
2018-01-05T04:56:00.970Z,990.83
2018-01-05T04:57:00.361Z,990.9
2018-01-05T04:57:59.849Z,990.89
2018-01-05T04:59:00.264Z,990.84
2018-01-05T04:59:59.386Z,990.82
2018-01-05T05:00:59.665Z,990.84
2018-01-05T05:02:00.018Z,990.76
2018-01-05T05:03:00.241Z,990.75
2018-01-05T05:03:59.481Z,990.78
2018-01-05T05:05:00.090Z,990.79
2018-01-05T05:05:59.277Z,990.78
2018-01-05T05:06:59.586Z,990.77
2018-01-05T05:07:59.065Z,990.72
2018-01-05T05:08:59.122Z,990.77
2018-01-05T05:09:59.248Z,990.75
2018-01-05T05:10:59.200Z,990.72
2018-01-05T05:11:59.139Z,990.72
2018-01-05T05:12:59.364Z,990.63
2018-01-05T05:13:59.583Z,990.65
2018-01-05T05:15:00.902Z,990.69
2018-01-05T05:15:59.080Z,990.69
2018-01-05T05:16:59.277Z,990.67
2018-01-05T05:17:59.401Z,990.66
2018-01-05T05:18:58.775Z,990.57
2018-01-05T05:19:59.055Z,990.57
2018-01-05T05:20:59.436Z,990.64
2018-01-05T05:21:59.650Z,990.66
2018-01-05T05:22:59.193Z,990.67
2018-01-05T05:23:59.468Z,990.63
2018-01-05T05:24:59.592Z,990.59
2018-01-05T05:25:58.779Z,990.67
2018-01-05T05:26:59.234Z,990.65
2018-01-05T05:27:59.537Z,990.69
2018-01-05T05:28:58.932Z,990.69
2018-01-05T05:29:59.318Z,990.64
2018-01-05T05:30:59.652Z,990.58
2018-01-05T05:31:58.856Z,990.58
2018-01-05T05:32:59.218Z,990.57
2018-01-05T05:33:59.787Z,990.57
2018-01-05T05:34:59.000Z,990.64
2018-01-05T05:35:59.343Z,990.58
2018-01-05T05:36:59.376Z,990.6
2018-01-05T05:37:59.436Z,990.62
2018-01-05T05:38:59.587Z,990.62
2018-01-05T05:39:59.745Z,990.65
2018-01-05T05:41:00.194Z,990.6
2018-01-05T05:41:59.510Z,990.59
2018-01-05T05:42:59.782Z,990.57
2018-01-05T05:44:00.039Z,990.59
2018-01-05T05:44:59.386Z,990.63
2018-01-05T05:45:59.380Z,990.66
2018-01-05T05:46:59.490Z,990.61
2018-01-05T05:47:59.661Z,990.63
2018-01-05T05:48:59.922Z,990.64
2018-01-05T05:50:00.469Z,990.66
2018-01-05T05:50:59.760Z,990.62
2018-01-05T05:52:00.114Z,990.57
2018-01-05T05:52:59.237Z,990.54
2018-01-05T05:53:59.370Z,990.52
2018-01-05T05:54:59.502Z,990.58
2018-01-05T05:55:59.956Z,990.57
2018-01-05T05:56:59.264Z,990.61
2018-01-05T05:57:59.385Z,990.53
2018-01-05T05:58:59.780Z,990.51
2018-01-05T06:00:00.092Z,990.52
2018-01-05T06:01:00.260Z,990.47
2018-01-05T06:01:59.551Z,990.46
2018-01-05T06:02:59.977Z,990.48
2018-01-05T06:03:59.262Z,990.43
2018-01-05T06:04:59.460Z,990.44
2018-01-05T06:05:59.735Z,990.42
2018-01-05T06:07:00.090Z,990.42
2018-01-05T06:08:00.250Z,990.39
2018-01-05T06:09:00.721Z,990.41
2018-01-05T06:10:00.024Z,990.45
2018-01-05T06:11:00.267Z,990.44
2018-01-05T06:12:00.414Z,990.46
2018-01-05T06:13:00.662Z,990.5
2018-01-05T06:13:59.931Z,990.44
2018-01-05T06:15:00.210Z,990.44
2018-01-05T06:16:00.442Z,990.46
2018-01-05T06:17:00.598Z,990.49
2018-01-05T06:18:00.127Z,990.5
2018-01-05T06:19:00.489Z,990.5
2018-01-05T06:19:59.790Z,990.43
2018-01-05T06:21:00.096Z,990.46
2018-01-05T06:22:00.396Z,990.5
2018-01-05T06:23:00.674Z,990.42
2018-01-05T06:23:59.792Z,990.39
2018-01-05T06:24:59.959Z,990.46
2018-01-05T06:26:00.282Z,990.36
2018-01-05T06:27:00.596Z,990.33
2018-01-05T06:27:59.939Z,990.31
2018-01-05T06:29:00.730Z,990.28
2018-01-05T06:30:00.132Z,990.28
2018-01-05T06:32:02.081Z,990.26
2018-01-05T06:33:00.413Z,990.28
2018-01-05T06:33:59.878Z,990.27
2018-01-05T06:35:00.280Z,990.21
2018-01-05T06:36:00.732Z,990.21
2018-01-05T06:36:59.718Z,990.18
2018-01-05T06:37:58.895Z,990.22
2018-01-05T06:38:59.196Z,990.15
2018-01-05T06:39:59.655Z,990.14
2018-01-05T06:40:58.892Z,990.11
2018-01-05T06:41:58.945Z,990.07
2018-01-05T06:42:59.209Z,990.08
2018-01-05T06:43:59.468Z,990.09
2018-01-05T06:44:59.736Z,990.15
2018-01-05T06:45:59.097Z,990.2
2018-01-05T06:46:59.316Z,990.26
2018-01-05T06:47:59.505Z,990.25
2018-01-05T06:48:58.790Z,990.38
2018-01-05T06:49:59.056Z,990.39
2018-01-05T06:50:59.679Z,990.29
2018-01-05T06:51:58.991Z,990.28
2018-01-05T06:52:59.356Z,990.33
2018-01-05T06:53:59.661Z,990.33
2018-01-05T06:54:59.088Z,990.35
2018-01-05T06:55:59.442Z,990.36
2018-01-05T06:56:59.688Z,990.42
2018-01-05T06:57:58.983Z,990.43
2018-01-05T06:58:59.306Z,990.4
2018-01-05T06:59:59.673Z,990.45
2018-01-05T07:00:59.344Z,990.41
2018-01-05T07:01:59.721Z,990.46
2018-01-05T07:02:58.978Z,990.44
2018-01-05T07:03:59.460Z,990.42
2018-01-05T07:04:58.748Z,990.47
2018-01-05T07:05:59.164Z,990.5
2018-01-05T07:06:59.636Z,990.46
2018-01-05T07:07:59.920Z,990.43
2018-01-05T07:09:01.072Z,990.51
2018-01-05T07:10:00.225Z,990.46
2018-01-05T07:10:59.763Z,990.43
2018-01-05T07:12:00.556Z,990.4
2018-01-05T07:12:59.631Z,990.43
2018-01-05T07:13:59.784Z,990.4
2018-01-05T07:15:00.155Z,990.41
2018-01-05T07:16:00.550Z,990.44
2018-01-05T07:16:59.990Z,990.41
2018-01-05T07:18:00.511Z,990.38
2018-01-05T07:19:00.005Z,990.4
2018-01-05T07:20:00.424Z,990.42
2018-01-05T07:20:59.876Z,990.37
2018-01-05T07:22:00.322Z,990.32
2018-01-05T07:23:00.532Z,990.32
2018-01-05T07:24:00.009Z,990.29
2018-01-05T07:25:00.418Z,990.23
2018-01-05T07:25:59.839Z,990.22
2018-01-05T07:27:00.153Z,990.17
2018-01-05T07:28:00.528Z,990.13
2018-01-05T07:28:59.849Z,990.16
2018-01-05T07:30:00.305Z,990.11
2018-01-05T07:30:59.625Z,990.14
2018-01-05T07:31:59.878Z,990.17
2018-01-05T07:33:00.282Z,990.24
2018-01-05T07:34:00.333Z,990.27
2018-01-05T07:34:59.796Z,990.3
2018-01-05T07:36:00.397Z,990.29
2018-01-05T07:36:59.720Z,990.21
2018-01-05T07:38:00.002Z,990.21
2018-01-05T07:39:00.367Z,990.26
2018-01-05T07:40:00.792Z,990.17
2018-01-05T07:41:00.409Z,990.13
2018-01-05T07:42:00.561Z,990.12
2018-01-05T07:43:00.681Z,990.11
2018-01-05T07:43:59.938Z,990.07
2018-01-05T07:45:00.322Z,990.1
2018-01-05T07:45:59.916Z,990.15
2018-01-05T07:47:00.675Z,990.18
2018-01-05T07:48:00.128Z,990.2
2018-01-05T07:49:00.187Z,990.26
2018-01-05T07:50:00.308Z,990.22
2018-01-05T07:51:00.669Z,990.31
2018-01-05T07:52:00.081Z,990.27
2018-01-05T07:53:00.497Z,990.31
2018-01-05T07:59:04.194Z,990.37
2018-01-05T08:00:00.616Z,990.35
2018-01-05T08:01:00.049Z,990.32
2018-01-05T08:02:00.243Z,990.29
2018-01-05T08:03:00.444Z,990.38
2018-01-05T08:03:59.896Z,990.34
2018-01-05T08:05:00.618Z,990.44
2018-01-05T08:06:00.012Z,990.41
2018-01-05T08:07:00.314Z,990.5
2018-01-05T08:07:59.795Z,990.56
2018-01-05T08:08:59.450Z,990.55
2018-01-05T08:09:59.994Z,990.54
2018-01-05T08:10:59.579Z,990.52
2018-01-05T08:11:59.980Z,990.54
2018-01-05T08:13:00.307Z,990.48
2018-01-05T08:13:59.698Z,990.54
2018-01-05T08:15:00.055Z,990.44
2018-01-05T08:15:59.401Z,990.38
2018-01-05T08:16:59.894Z,990.33
2018-01-05T08:18:00.155Z,990.37
2018-01-05T08:18:59.430Z,990.32
2018-01-05T08:20:00.105Z,990.26
2018-01-05T08:20:59.535Z,990.31
2018-01-05T08:21:59.892Z,990.26
2018-01-05T08:23:00.220Z,990.21
2018-01-05T08:23:59.594Z,990.29
2018-01-05T08:25:00.014Z,990.18
2018-01-05T08:26:00.185Z,990.22
2018-01-05T08:26:59.810Z,990.22
2018-01-05T08:28:00.084Z,990.22
2018-01-05T08:29:00.206Z,990.25
2018-01-05T08:29:59.583Z,990.2
2018-01-05T08:31:00.102Z,990.23
2018-01-05T08:31:59.444Z,990.25
2018-01-05T08:32:59.721Z,990.27
2018-01-05T08:33:59.948Z,990.21
2018-01-05T08:34:59.530Z,990.13
2018-01-05T08:35:59.886Z,990.12
2018-01-05T08:37:00.127Z,990.2
2018-01-05T08:37:59.812Z,990.28
2018-01-05T08:39:00.224Z,990.26
2018-01-05T08:40:00.495Z,990.29
2018-01-05T08:40:59.981Z,990.33
2018-01-05T08:42:00.647Z,990.34
2018-01-05T08:43:00.273Z,990.35
2018-01-05T08:44:00.623Z,990.31
2018-01-05T08:44:59.804Z,990.38
2018-01-05T08:46:00.021Z,990.39
2018-01-05T08:47:00.196Z,990.45
2018-01-05T08:48:00.514Z,990.47
2018-01-05T08:49:00.036Z,990.51
2018-01-05T08:50:00.290Z,990.45
2018-01-05T08:51:00.618Z,990.5
2018-01-05T08:51:59.955Z,990.51
2018-01-05T08:53:00.379Z,990.41
2018-01-05T08:53:59.822Z,990.48
2018-01-05T08:55:00.078Z,990.47
2018-01-05T08:56:00.267Z,990.43
2018-01-05T08:57:00.589Z,990.43
2018-01-05T08:58:00.020Z,990.45
2018-01-05T08:59:00.415Z,990.46
2018-01-05T08:59:59.885Z,990.47
2018-01-05T09:01:00.210Z,990.43
2018-01-05T09:02:00.569Z,990.45
2018-01-05T09:02:59.754Z,990.46
2018-01-05T09:04:00.198Z,990.48
2018-01-05T09:05:00.826Z,990.49
2018-01-05T09:06:00.255Z,990.4
2018-01-05T09:07:00.653Z,990.44
2018-01-05T09:08:00.370Z,990.48
2018-01-05T09:08:59.748Z,990.43
2018-01-05T09:10:00.266Z,990.52
2018-01-05T09:10:59.981Z,990.53
2018-01-05T09:11:59.360Z,990.45
2018-01-05T09:12:59.572Z,990.46
2018-01-05T09:13:59.662Z,990.44
2018-01-05T09:15:00.134Z,990.32
2018-01-05T09:15:59.551Z,990.44
2018-01-05T09:16:59.791Z,990.4
2018-01-05T09:18:00.249Z,990.37
2018-01-05T09:18:59.654Z,990.36
2018-01-05T09:19:59.766Z,990.35
2018-01-05T09:21:00.341Z,990.42
2018-01-05T09:21:59.936Z,990.43
2018-01-05T09:23:00.252Z,990.37
2018-01-05T09:23:59.518Z,990.44
2018-01-05T09:24:59.703Z,990.4
2018-01-05T09:26:00.002Z,990.38
2018-01-05T09:27:00.202Z,990.37
2018-01-05T09:27:59.715Z,990.39
2018-01-05T09:29:00.153Z,990.36
2018-01-05T09:29:59.435Z,990.39
2018-01-05T09:30:59.895Z,990.4
2018-01-05T09:31:59.392Z,990.38
2018-01-05T09:33:00.109Z,990.39
2018-01-05T09:34:00.342Z,990.42
2018-01-05T09:34:59.691Z,990.39
2018-01-05T09:36:00.012Z,990.37
2018-01-05T09:37:00.124Z,990.37
2018-01-05T09:37:59.523Z,990.39
2018-01-05T09:39:00.218Z,990.38
2018-01-05T09:39:59.641Z,990.39
2018-01-05T09:40:59.939Z,990.4
2018-01-05T09:41:59.115Z,990.41
2018-01-05T09:42:59.442Z,990.46
2018-01-05T09:43:59.038Z,990.38
2018-01-05T09:44:59.302Z,990.44
2018-01-05T09:45:59.849Z,990.41
2018-01-05T09:46:59.240Z,990.41
2018-01-05T09:47:59.465Z,990.46
2018-01-05T09:48:59.852Z,990.44
2018-01-05T09:49:59.340Z,990.45
2018-01-05T09:50:59.560Z,990.5
2018-01-05T09:51:59.671Z,990.42
2018-01-05T09:52:59.745Z,990.47
2018-01-05T09:53:59.931Z,990.48
2018-01-05T09:54:59.581Z,990.45
2018-01-05T09:55:59.905Z,990.45
2018-01-05T09:56:59.068Z,990.39
2018-01-05T09:57:59.262Z,990.34
2018-01-05T09:58:59.700Z,990.36
2018-01-05T09:59:59.701Z,990.4
2018-01-05T10:01:00.001Z,990.38
2018-01-05T10:01:59.357Z,990.37
2018-01-05T10:02:59.648Z,990.33
2018-01-05T10:03:59.878Z,990.32
2018-01-05T10:04:59.243Z,990.29
2018-01-05T10:05:59.859Z,990.36
2018-01-05T10:06:59.197Z,990.34
2018-01-05T10:07:59.382Z,990.42
2018-01-05T10:08:59.549Z,990.33
2018-01-05T10:09:59.864Z,990.39
2018-01-05T10:11:00.460Z,990.35
2018-01-05T10:12:00.731Z,990.36
2018-01-05T10:13:00.031Z,990.3
2018-01-05T10:14:00.439Z,990.27
2018-01-05T10:15:00.661Z,990.26
2018-01-05T10:15:59.760Z,990.19
2018-01-05T10:16:59.996Z,990.22
2018-01-05T10:18:00.171Z,990.18
2018-01-05T10:19:00.632Z,990.2
2018-01-05T10:19:59.897Z,990.2
2018-01-05T10:21:00.236Z,990.22
2018-01-05T10:22:00.405Z,990.19
2018-01-05T10:23:00.671Z,990.13
2018-01-05T10:23:59.881Z,990.18
2018-01-05T10:25:03.773Z,990.25
2018-01-05T10:26:00.185Z,990.22
2018-01-05T10:27:00.861Z,990.18
2018-01-05T10:28:00.517Z,990.16
2018-01-05T10:28:59.819Z,990.14
2018-01-05T10:30:00.139Z,990.19
2018-01-05T10:31:00.669Z,990.19
2018-01-05T10:32:00.259Z,990.04
2018-01-05T10:33:00.661Z,990.03
2018-01-05T10:34:00.128Z,990.11
2018-01-05T10:35:00.303Z,990.06
2018-01-05T10:36:00.578Z,990.03
2018-01-05T10:37:00.104Z,989.97
2018-01-05T10:38:00.700Z,990.01
2018-01-05T10:39:00.270Z,990.02
2018-01-05T10:40:00.713Z,990.01
2018-01-05T10:41:00.168Z,990.02
2018-01-05T10:42:00.589Z,990.01
2018-01-05T10:42:59.868Z,989.99
2018-01-05T10:44:00.274Z,990.01
2018-01-05T10:44:59.902Z,990.06
2018-01-05T10:46:00.352Z,990.04
2018-01-05T10:46:59.749Z,990.02
2018-01-05T10:48:00.023Z,990.01
2018-01-05T10:49:00.318Z,990.04
2018-01-05T10:49:59.768Z,990.07
2018-01-05T10:51:00.270Z,990.03
2018-01-05T10:51:59.818Z,990.04
2018-01-05T10:53:00.232Z,990.01
2018-01-05T10:54:00.601Z,990.05
2018-01-05T10:54:59.932Z,990
2018-01-05T10:56:00.460Z,989.98
2018-01-05T10:56:59.644Z,989.97
2018-01-05T10:57:59.936Z,989.93
2018-01-05T10:59:06.043Z,989.82
2018-01-05T10:59:59.737Z,989.89
2018-01-05T11:01:00.236Z,989.9
2018-01-05T11:02:00.480Z,989.87
2018-01-05T11:02:59.718Z,989.83
2018-01-05T11:04:00.143Z,989.77
2018-01-05T11:05:00.573Z,989.77
2018-01-05T11:05:59.853Z,989.73
2018-01-05T11:07:00.326Z,989.74
2018-01-05T11:07:59.670Z,989.76
2018-01-05T11:08:59.959Z,989.74
2018-01-05T11:10:00.559Z,989.72
2018-01-05T11:11:00.157Z,989.78
2018-01-05T11:11:59.712Z,989.74
2018-01-05T11:12:59.079Z,989.76
2018-01-05T11:13:59.240Z,989.77
2018-01-05T11:14:59.591Z,989.74
2018-01-05T11:16:00.263Z,989.77
2018-01-05T11:16:59.775Z,989.75
2018-01-05T11:17:59.242Z,989.67
2018-01-05T11:18:59.556Z,989.68
2018-01-05T11:19:59.777Z,989.67
2018-01-05T11:20:59.150Z,989.59
2018-01-05T11:21:59.780Z,989.56
2018-01-05T11:22:59.993Z,989.59
2018-01-05T11:23:59.713Z,989.61
2018-01-05T11:24:59.364Z,989.59
2018-01-05T11:26:04.175Z,989.59
2018-01-05T11:26:59.447Z,989.56
2018-01-05T11:28:00.077Z,989.62
2018-01-05T11:28:59.447Z,989.57
2018-01-05T11:29:59.743Z,989.59
2018-01-05T11:30:59.418Z,989.58
2018-01-05T11:31:59.782Z,989.56
2018-01-05T11:32:59.242Z,989.54
2018-01-05T11:33:59.756Z,989.49
2018-01-05T11:34:59.218Z,989.57
2018-01-05T11:35:59.494Z,989.52
2018-01-05T11:36:59.756Z,989.49
2018-01-05T11:38:00.142Z,989.46
2018-01-05T11:38:59.228Z,989.43
2018-01-05T11:39:59.441Z,989.47
2018-01-05T11:40:59.923Z,989.46
2018-01-05T11:41:59.284Z,989.55
2018-01-05T11:42:59.660Z,989.56
2018-01-05T11:44:00.113Z,989.53
2018-01-05T11:44:59.632Z,989.55
2018-01-05T11:46:00.056Z,989.54
2018-01-05T11:47:00.207Z,989.58
2018-01-05T11:47:59.650Z,989.51
2018-01-05T11:49:00.279Z,989.5
2018-01-05T11:49:59.460Z,989.54
2018-01-05T11:50:59.979Z,989.48
2018-01-05T11:51:59.490Z,989.53
2018-01-05T11:52:59.974Z,989.47
2018-01-05T11:53:59.656Z,989.47
2018-01-05T11:55:02.764Z,989.43
2018-01-05T11:56:00.245Z,989.42
2018-01-05T11:56:59.722Z,989.46
2018-01-05T11:58:00.187Z,989.44
2018-01-05T11:58:59.571Z,989.42
2018-01-05T12:00:00.105Z,989.48
2018-01-05T12:00:59.583Z,989.48
2018-01-05T12:02:00.246Z,989.44
2018-01-05T12:02:59.564Z,989.45
2018-01-05T12:03:59.875Z,989.42
2018-01-05T12:04:59.918Z,989.43
2018-01-05T12:06:00.288Z,989.42
2018-01-05T12:06:59.926Z,989.43
2018-01-05T12:07:59.443Z,989.43
2018-01-05T12:08:59.820Z,989.45
2018-01-05T12:10:00.115Z,989.51
2018-01-05T12:10:59.494Z,989.46
2018-01-05T12:11:59.975Z,989.49
2018-01-05T12:12:59.309Z,989.46
2018-01-05T12:13:59.794Z,989.45
2018-01-05T12:14:59.506Z,989.41
2018-01-05T12:15:59.296Z,989.42
2018-01-05T12:16:59.522Z,989.39
2018-01-05T12:17:59.873Z,989.36
2018-01-05T12:18:59.400Z,989.33
2018-01-05T12:19:59.888Z,989.29
2018-01-05T12:20:59.290Z,989.25
2018-01-05T12:21:59.649Z,989.24
2018-01-05T12:22:59.119Z,989.27
2018-01-05T12:23:59.517Z,989.26
2018-01-05T12:25:00.482Z,989.33
2018-01-05T12:26:01.621Z,989.25
2018-01-05T12:26:59.301Z,989.22
2018-01-05T12:27:59.293Z,989.27
2018-01-05T12:28:59.518Z,989.29
2018-01-05T12:30:00.066Z,989.28
2018-01-05T12:31:00.719Z,989.35
2018-01-05T12:31:59.090Z,989.29
2018-01-05T12:32:59.250Z,989.26
2018-01-05T12:33:59.731Z,989.19
2018-01-05T12:34:59.238Z,989.27
2018-01-05T12:35:59.563Z,989.24
2018-01-05T12:36:59.816Z,989.24
2018-01-05T12:37:59.323Z,989.22
2018-01-05T12:38:59.601Z,989.18
2018-01-05T12:39:59.057Z,989.18